Time;durP1;ratioP1;P1;durP2;ratioP2;P2;SDS_P1;SDS_P2;PMS_P1;PMS_P2;Temp;Humidity;BMP_temperature;BMP_pressure;BME280_temperature;BME280_humidity;BME280_pressure;Samples;Min_cycle;Max_cycle;Signal;HPM_P1;HPM_P2
2023/07/18 00:01:58;;;;;;;2.83;1.80;;;;;;;;;;5111119;28;20059;-75
2023/07/18 00:04:28;;;;;;;4.22;1.95;;;;;;;;;;5111692;28;20054;-73
2023/07/18 00:06:55;;;;;;;4.07;1.83;;;;;;;;;;5111417;28;20051;-73
2023/07/18 00:09:22;;;;;;;3.40;2.13;;;;;;;;;;5111548;28;20044;-76
2023/07/18 00:11:48;;;;;;;4.03;2.20;;;;;;;;;;5111393;28;20058;-72
2023/07/18 00:14:15;;;;;;;3.65;2.10;;;;;;;;;;5093600;28;20052;-72
2023/07/18 00:16:44;;;;;;;5.78;2.30;;;;;;;;;;5111642;28;20530;-73
2023/07/18 00:19:12;;;;;;;4.07;2.10;;;;;;;;;;5111724;28;20127;-76
2023/07/18 00:21:39;;;;;;;4.10;2.25;;;;;;;;;;5110971;28;20083;-73
2023/07/18 00:24:06;;;;;;;5.20;2.53;;;;;;;;;;5092878;28;20044;-72
2023/07/18 00:26:33;;;;;;;3.70;2.25;;;;;;;;;;5111034;28;20377;-74
2023/07/18 00:29:00;;;;;;;3.67;2.33;;;;;;;;;;5111031;28;20059;-72
2023/07/18 00:31:27;;;;;;;4.38;2.35;;;;;;;;;;5111047;28;20048;-73
2023/07/18 00:33:53;;;;;;;4.45;2.20;;;;;;;;;;5111625;28;20048;-74
2023/07/18 00:36:20;;;;;;;4.28;2.50;;;;;;;;;;5110915;28;20388;-73
2023/07/18 00:38:47;;;;;;;3.88;2.42;;;;;;;;;;5110797;28;20090;-73
2023/07/18 00:41:14;;;;;;;2.50;1.80;;;;;;;;;;5110388;28;20859;-73
2023/07/18 00:43:44;;;;;;;7.35;2.20;;;;;;;;;;5111125;28;20048;-74
2023/07/18 00:46:12;;;;;;;4.90;2.30;;;;;;;;;;5110867;28;20048;-73
2023/07/18 00:48:40;;;;;;;5.55;2.42;;;;;;;;;;5110888;28;20663;-72
2023/07/18 00:51:07;;;;;;;4.70;2.45;;;;;;;;;;5110390;28;20596;-74
2023/07/18 00:53:37;;;;;;;5.13;1.85;;;;;;;;;;5110516;28;20079;-72
2023/07/18 00:56:04;;;;;;;4.43;2.30;;;;;;;;;;5110857;28;20055;-73
2023/07/18 00:58:34;;;;;;;4.00;2.28;;;;;;;;;;5110554;28;20043;-76
2023/07/18 01:01:02;;;;;;;4.75;2.28;;;;;;;;;;5110151;28;20443;-73
2023/07/18 01:03:29;;;;;;;5.32;2.20;;;;;;;;;;5110220;28;20055;-75
2023/07/18 01:05:56;;;;;;;4.10;2.22;;;;;;;;;;5110163;28;20555;-74
2023/07/18 01:08:23;;;;;;;5.38;2.40;;;;;;;;;;5109868;28;20055;-73
2023/07/18 01:10:50;;;;;;;4.80;2.45;;;;;;;;;;5091622;28;20051;-73
2023/07/18 01:13:17;;;;;;;5.32;2.53;;;;;;;;;;5109749;28;20053;-73
2023/07/18 01:15:44;;;;;;;5.15;2.45;;;;;;;;;;5110300;28;20074;-72
2023/07/18 01:18:13;;;;;;;3.78;2.10;;;;;;;;;;5109953;28;20130;-75
2023/07/18 01:20:44;;;;;;;5.25;2.08;;;;;;;;;;5109842;28;20083;-73
2023/07/18 01:23:11;;;;;;;5.05;2.08;;;;;;;;;;5109914;28;20100;-74
2023/07/18 01:25:38;;;;;;;3.63;2.22;;;;;;;;;;5109831;28;20043;-76
2023/07/18 01:28:06;;;;;;;6.10;2.45;;;;;;;;;;5109869;28;20048;-74
2023/07/18 01:30:35;;;;;;;4.78;2.67;;;;;;;;;;5110143;28;20050;-73
2023/07/18 01:33:02;;;;;;;5.65;2.30;;;;;;;;;;5109637;28;20410;-73
2023/07/18 01:35:30;;;;;;;6.18;2.30;;;;;;;;;;5115575;27;20043;-76
2023/07/18 01:37:57;;;;;;;8.25;2.78;;;;;;;;;;5119300;27;20039;-72
2023/07/18 01:40:24;;;;;;;4.63;1.92;;;;;;;;;;5120295;27;20082;-74
2023/07/18 01:42:52;;;;;;;6.80;2.38;;;;;;;;;;5118728;27;20062;-72
2023/07/18 01:45:21;;;;;;;5.75;2.35;;;;;;;;;;5119330;27;20047;-73
2023/07/18 01:47:49;;;;;;;4.00;2.28;;;;;;;;;;5120450;27;20100;-73
2023/07/18 01:50:17;;;;;;;4.30;2.30;;;;;;;;;;5119334;27;20510;-73
2023/07/18 01:52:46;;;;;;;5.80;2.30;;;;;;;;;;5117655;27;20126;-73
2023/07/18 01:55:13;;;;;;;3.30;2.05;;;;;;;;;;5119776;27;20099;-72
2023/07/18 01:57:46;;;;;;;5.50;2.30;;;;;;;;;;5119838;27;20040;-74
2023/07/18 02:00:19;;;;;;;3.22;2.10;;;;;;;;;;5118910;27;20055;-72
2023/07/18 02:02:49;;;;;;;3.67;2.13;;;;;;;;;;5117905;27;20078;-74
2023/07/18 02:05:18;;;;;;;3.78;2.20;;;;;;;;;;5124067;27;20049;-72
2023/07/18 02:07:46;;;;;;;8.00;2.70;;;;;;;;;;5119567;27;20564;-72
2023/07/18 02:10:19;;;;;;;4.47;2.42;;;;;;;;;;5118617;27;20044;-73
2023/07/18 02:12:51;;;;;;;4.00;2.00;;;;;;;;;;5117476;27;20131;-72
2023/07/18 02:15:18;;;;;;;4.35;2.15;;;;;;;;;;5119009;27;20039;-72
2023/07/18 02:17:45;;;;;;;5.25;2.03;;;;;;;;;;5120015;27;20092;-73
2023/07/18 02:20:14;;;;;;;4.65;2.30;;;;;;;;;;5100456;27;20071;-73
2023/07/18 02:22:43;;;;;;;8.98;2.70;;;;;;;;;;5118058;28;20039;-72
2023/07/18 02:25:11;;;;;;;3.75;2.00;;;;;;;;;;5118083;27;20056;-72
2023/07/18 02:27:39;;;;;;;3.72;2.33;;;;;;;;;;5118255;27;20520;-72
2023/07/18 02:30:11;;;;;;;7.80;2.33;;;;;;;;;;5119441;28;20067;-73
2023/07/18 02:32:39;;;;;;;4.45;2.20;;;;;;;;;;5118908;28;20116;-73
2023/07/18 02:35:10;;;;;;;7.53;2.63;;;;;;;;;;5117709;28;20511;-74
2023/07/18 02:37:37;;;;;;;4.25;2.30;;;;;;;;;;5118213;28;20634;-73
2023/07/18 02:40:11;;;;;;;3.63;2.03;;;;;;;;;;5119927;27;20046;-73
2023/07/18 02:42:38;;;;;;;3.40;1.98;;;;;;;;;;5118644;28;20050;-72
2023/07/18 02:45:08;;;;;;;7.65;2.80;;;;;;;;;;5118075;28;20044;-74
2023/07/18 02:47:36;;;;;;;4.43;2.40;;;;;;;;;;5119532;28;20043;-74
2023/07/18 02:50:03;;;;;;;4.60;2.30;;;;;;;;;;5119397;28;20067;-73
2023/07/18 02:52:30;;;;;;;5.70;2.38;;;;;;;;;;5117039;28;20082;-72
2023/07/18 02:54:57;;;;;;;4.43;2.60;;;;;;;;;;5100764;28;20470;-72
2023/07/18 02:57:23;;;;;;;4.30;2.20;;;;;;;;;;5119426;28;20560;-73
2023/07/18 02:59:50;;;;;;;3.88;2.03;;;;;;;;;;5117879;28;20040;-75
2023/07/18 03:02:17;;;;;;;4.82;2.30;;;;;;;;;;5110919;28;20410;-73
2023/07/18 03:04:47;;;;;;;7.47;2.30;;;;;;;;;;5109039;28;20072;-73
2023/07/18 03:07:17;;;;;;;5.03;2.80;;;;;;;;;;5108109;28;20048;-74
2023/07/18 03:09:45;;;;;;;6.90;2.60;;;;;;;;;;5109079;28;20048;-74
2023/07/18 03:12:12;;;;;;;2.97;2.20;;;;;;;;;;5108581;28;20055;-73
2023/07/18 03:14:39;;;;;;;3.50;2.10;;;;;;;;;;5109942;28;20427;-72
2023/07/18 03:17:06;;;;;;;4.68;2.28;;;;;;;;;;5108595;28;20058;-73
2023/07/18 03:19:33;;;;;;;4.88;2.58;;;;;;;;;;5108510;28;20044;-72
2023/07/18 03:22:00;;;;;;;5.70;2.10;;;;;;;;;;5108200;28;20050;-72
2023/07/18 03:24:26;;;;;;;4.10;2.28;;;;;;;;;;5108566;28;20048;-74
2023/07/18 03:26:53;;;;;;;4.88;2.50;;;;;;;;;;5108622;28;20055;-73
2023/07/18 03:29:20;;;;;;;4.15;2.20;;;;;;;;;;5108471;28;20052;-73
2023/07/18 03:31:46;;;;;;;8.25;2.53;;;;;;;;;;5108526;28;20044;-73
2023/07/18 03:34:13;;;;;;;5.40;2.72;;;;;;;;;;5108446;28;20541;-72
2023/07/18 03:36:40;;;;;;;5.30;2.70;;;;;;;;;;5110221;28;20122;-73
2023/07/18 03:39:10;;;;;;;5.45;2.50;;;;;;;;;;5111733;28;20074;-73
2023/07/18 03:41:38;;;;;;;;;;;;;;;;;;5112693;28;20052;-73
2023/07/18 03:44:04;;;;;;;3.95;2.60;;;;;;;;;;5112212;28;19923;-75
2023/07/18 03:46:31;;;;;;;4.72;2.60;;;;;;;;;;5112244;28;20077;-73
2023/07/18 03:48:58;;;;;;;4.25;2.13;;;;;;;;;;5111773;28;20135;-72
2023/07/18 03:51:25;;;;;;;4.32;2.35;;;;;;;;;;5112329;28;20112;-75
2023/07/18 03:53:55;;;;;;;4.05;2.30;;;;;;;;;;5111311;28;20065;-72
2023/07/18 03:56:22;;;;;;;5.05;2.53;;;;;;;;;;5112076;28;20046;-72
2023/07/18 03:58:50;;;;;;;3.97;2.30;;;;;;;;;;5111444;28;20104;-72
2023/07/18 04:01:17;;;;;;;6.80;2.28;;;;;;;;;;5111751;28;20051;-72
2023/07/18 04:03:44;;;;;;;4.05;2.15;;;;;;;;;;5117395;27;20130;-72
2023/07/18 04:06:11;;;;;;;4.38;2.50;;;;;;;;;;5132278;27;20049;-76
2023/07/18 04:08:37;;;;;;;5.00;2.55;;;;;;;;;;5131813;27;20058;-73
2023/07/18 04:11:08;;;;;;;;;;;;;;;;;;5132581;27;20050;-74
2023/07/18 04:13:34;;;;;;;7.97;2.58;;;;;;;;;;5131750;27;19919;-74
2023/07/18 04:16:01;;;;;;;5.30;2.50;;;;;;;;;;5131991;27;20391;-73
2023/07/18 04:18:28;;;;;;;5.10;2.55;;;;;;;;;;5131610;27;20448;-73
2023/07/18 04:20:59;;;;;;;4.95;2.60;;;;;;;;;;5131964;27;20402;-73
2023/07/18 04:23:26;;;;;;;4.28;2.08;;;;;;;;;;5131230;27;20520;-73
2023/07/18 04:25:56;;;;;;;4.75;2.67;;;;;;;;;;5113738;27;20517;-73
2023/07/18 04:28:22;;;;;;;5.67;2.47;;;;;;;;;;5131734;27;20103;-74
2023/07/18 04:30:49;;;;;;;7.18;2.67;;;;;;;;;;5131979;27;20054;-72
2023/07/18 04:33:16;;;;;;;6.95;2.35;;;;;;;;;;5131101;27;20051;-76
2023/07/18 04:35:45;;;;;;;6.28;2.47;;;;;;;;;;5131559;27;20050;-73
2023/07/18 04:38:13;;;;;;;3.40;2.03;;;;;;;;;;5131105;27;20047;-73
2023/07/18 04:40:41;;;;;;;5.53;2.40;;;;;;;;;;5131502;27;20144;-73
2023/07/18 04:43:08;;;;;;;5.68;2.70;;;;;;;;;;5131552;27;20422;-73
2023/07/18 04:45:45;;;;;;;4.32;2.35;;;;;;;;;;5131848;27;20048;-73
2023/07/18 04:48:16;;;;;;;8.65;2.40;;;;;;;;;;5131147;27;20043;-73
2023/07/18 04:50:44;;;;;;;3.33;2.08;;;;;;;;;;5131600;27;20118;-73
2023/07/18 04:53:11;;;;;;;4.40;2.33;;;;;;;;;;5130507;27;20051;-74
2023/07/18 04:55:39;;;;;;;3.53;2.72;;;;;;;;;;5131564;27;20043;-73
2023/07/18 04:58:07;;;;;;;4.50;2.30;;;;;;;;;;5131208;27;20051;-72
2023/07/18 05:00:34;;;;;;;5.25;2.40;;;;;;;;;;5131409;27;20096;-72
2023/07/18 05:03:01;;;;;;;4.97;2.53;;;;;;;;;;5130970;27;20490;-76
2023/07/18 05:05:29;;;;;;;5.75;2.47;;;;;;;;;;5131024;27;20066;-73
2023/07/18 05:07:58;;;;;;;4.57;2.35;;;;;;;;;;5130570;27;20103;-72
2023/07/18 05:10:25;;;;;;;4.60;2.63;;;;;;;;;;5131116;27;20166;-74
2023/07/18 05:12:53;;;;;;;3.85;2.20;;;;;;;;;;5130504;27;20518;-72
2023/07/18 05:15:20;;;;;;;4.90;2.40;;;;;;;;;;5131240;27;20045;-72
2023/07/18 05:17:47;;;;;;;5.43;2.78;;;;;;;;;;5130856;27;20402;-72
2023/07/18 05:20:14;;;;;;;3.80;2.42;;;;;;;;;;5130867;27;20079;-75
2023/07/18 05:22:43;;;;;;;4.32;2.45;;;;;;;;;;5112039;27;20130;-73
2023/07/18 05:25:12;;;;;;;7.18;2.60;;;;;;;;;;5130368;27;20051;-74
2023/07/18 05:27:40;;;;;;;5.82;2.38;;;;;;;;;;5130834;27;20039;-73
2023/07/18 05:30:13;;;;;;;4.47;2.53;;;;;;;;;;5130284;27;20053;-72
2023/07/18 05:32:40;;;;;;;3.88;2.30;;;;;;;;;;5130371;27;20133;-72
2023/07/18 05:35:11;;;;;;;4.90;2.45;;;;;;;;;;5130306;27;20109;-72
2023/07/18 05:37:38;;;;;;;5.85;2.83;;;;;;;;;;5130274;27;20046;-73
2023/07/18 05:40:05;;;;;;;5.75;2.53;;;;;;;;;;5129973;27;20046;-72
2023/07/18 05:42:33;;;;;;;8.85;2.92;;;;;;;;;;5130133;27;20043;-74
2023/07/18 05:44:59;;;;;;;3.67;2.50;;;;;;;;;;5130261;27;20051;-73
2023/07/18 05:47:26;;;;;;;5.53;2.58;;;;;;;;;;5129944;27;20043;-73
2023/07/18 05:49:53;;;;;;;4.97;2.55;;;;;;;;;;5111665;27;20467;-74
2023/07/18 05:52:20;;;;;;;5.07;2.60;;;;;;;;;;5130274;27;20047;-72
2023/07/18 05:54:47;;;;;;;7.10;2.70;;;;;;;;;;5129995;27;20061;-73
2023/07/18 05:57:14;;;;;;;6.18;2.83;;;;;;;;;;5112005;27;20039;-73
2023/07/18 05:59:40;;;;;;;7.18;2.70;;;;;;;;;;5129481;27;20091;-73
2023/07/18 06:02:07;;;;;;;7.18;2.67;;;;;;;;;;5129632;27;20043;-72
2023/07/18 06:04:36;;;;;;;4.15;2.70;;;;;;;;;;5129786;27;20046;-73
2023/07/18 06:07:04;;;;;;;6.32;2.90;;;;;;;;;;5111412;27;20047;-72
2023/07/18 06:09:30;;;;;;;7.50;2.90;;;;;;;;;;5129744;27;20043;-72
2023/07/18 06:11:58;;;;;;;5.10;2.60;;;;;;;;;;5111782;27;20043;-73
2023/07/18 06:14:26;;;;;;;10.70;3.42;;;;;;;;;;5129374;27;20043;-72
2023/07/18 06:16:53;;;;;;;6.97;2.85;;;;;;;;;;5129807;27;20040;-73
2023/07/18 06:19:21;;;;;;;7.68;2.42;;;;;;;;;;5129573;27;20132;-75
2023/07/18 06:21:48;;;;;;;8.15;2.80;;;;;;;;;;5129870;27;20055;-72
2023/07/18 06:24:16;;;;;;;8.32;3.00;;;;;;;;;;5128939;27;20138;-72
2023/07/18 06:26:48;;;;;;;7.88;2.70;;;;;;;;;;5129950;27;20424;-73
2023/07/18 06:29:19;;;;;;;5.57;2.80;;;;;;;;;;5129322;27;20066;-72
2023/07/18 06:31:48;;;;;;;11.82;2.80;;;;;;;;;;5130625;28;20503;-73
2023/07/18 06:34:18;;;;;;;7.93;2.60;;;;;;;;;;5129529;28;20138;-72
2023/07/18 06:36:45;;;;;;;;;;;;;;;;;;5129861;28;20448;-73
2023/07/18 06:39:16;;;;;;;4.53;2.45;;;;;;;;;;5128971;28;20026;-72
2023/07/18 06:41:44;;;;;;;4.80;2.38;;;;;;;;;;5111095;28;20047;-73
2023/07/18 06:44:12;;;;;;;5.93;2.50;;;;;;;;;;5129541;28;20043;-73
2023/07/18 06:46:39;;;;;;;5.75;2.28;;;;;;;;;;5129757;28;20068;-73
2023/07/18 06:49:09;;;;;;;4.80;2.53;;;;;;;;;;5129298;28;20392;-73
2023/07/18 06:51:36;;;;;;;4.07;2.28;;;;;;;;;;5129536;28;20043;-72
2023/07/18 06:54:03;;;;;;;3.95;2.20;;;;;;;;;;5128542;28;20427;-73
2023/07/18 06:56:30;;;;;;;5.20;2.15;;;;;;;;;;5129221;28;20521;-72
2023/07/18 06:58:57;;;;;;;9.27;2.20;;;;;;;;;;5129519;28;20062;-72
2023/07/18 07:01:23;;;;;;;4.93;2.03;;;;;;;;;;5129447;28;20128;-71
2023/07/18 07:03:55;;;;;;;6.53;2.40;;;;;;;;;;5112954;28;20055;-71
2023/07/18 07:06:23;;;;;;;5.07;2.13;;;;;;;;;;5129500;28;20051;-71
2023/07/18 07:08:51;;;;;;;5.70;2.40;;;;;;;;;;5128836;28;20070;-72
2023/07/18 07:11:18;;;;;;;10.63;2.40;;;;;;;;;;5111843;27;20071;-71
2023/07/18 07:13:45;;;;;;;3.45;2.03;;;;;;;;;;5132900;27;20403;-71
2023/07/18 07:16:12;;;;;;;7.65;2.45;;;;;;;;;;5132764;27;20095;-74
2023/07/18 07:18:38;;;;;;;5.88;2.38;;;;;;;;;;5133200;27;20442;-71
2023/07/18 07:21:06;;;;;;;2.60;1.90;;;;;;;;;;5133261;27;20059;-74
2023/07/18 07:23:33;;;;;;;3.80;1.92;;;;;;;;;;5137994;27;20114;-72
2023/07/18 07:26:00;;;;;;;3.47;2.10;;;;;;;;;;5132398;27;20047;-70
2023/07/18 07:28:26;;;;;;;4.07;2.08;;;;;;;;;;5129206;27;20051;-70
2023/07/18 07:30:53;;;;;;;5.22;2.22;;;;;;;;;;5121222;27;20074;-71
2023/07/18 07:33:20;;;;;;;3.92;2.00;;;;;;;;;;5123816;27;20058;-70
2023/07/18 07:35:46;;;;;;;6.78;2.17;;;;;;;;;;5139838;27;20047;-69
2023/07/18 07:38:14;;;;;;;3.13;1.90;;;;;;;;;;5139160;27;20049;-71
2023/07/18 07:40:41;;;;;;;6.20;2.10;;;;;;;;;;5142105;27;20078;-72
2023/07/18 07:43:08;;;;;;;2.85;1.90;;;;;;;;;;5134759;27;20250;-71
2023/07/18 07:45:35;;;;;;;5.03;1.73;;;;;;;;;;5137315;27;20072;-75
2023/07/18 07:48:01;;;;;;;8.10;2.13;;;;;;;;;;5137689;27;20075;-72
2023/07/18 07:50:28;;;;;;;8.73;2.20;;;;;;;;;;5132869;27;20412;-70
2023/07/18 07:52:55;;;;;;;5.03;2.00;;;;;;;;;;5132272;27;20043;-72
2023/07/18 07:55:22;;;;;;;5.03;2.88;;;;;;;;;;5132532;27;20047;-71
2023/07/18 07:57:48;;;;;;;4.85;2.17;;;;;;;;;;5132838;27;20165;-71
2023/07/18 08:00:15;;;;;;;6.95;2.35;;;;;;;;;;5132854;27;20039;-71
2023/07/18 08:02:42;;;;;;;3.58;1.90;;;;;;;;;;5132291;27;20127;-71
2023/07/18 08:05:09;;;;;;;8.13;2.50;;;;;;;;;;5132011;27;20047;-71
2023/07/18 08:07:36;;;;;;;5.80;2.20;;;;;;;;;;5126549;27;20122;-72
2023/07/18 08:10:04;;;;;;;7.70;2.40;;;;;;;;;;5120664;27;20228;-70
2023/07/18 08:12:30;;;;;;;4.72;2.05;;;;;;;;;;5103771;27;20039;-70
2023/07/18 08:14:57;;;;;;;4.13;2.05;;;;;;;;;;5122423;27;20043;-72
2023/07/18 08:17:25;;;;;;;3.05;1.90;;;;;;;;;;5124175;27;20082;-75
2023/07/18 08:19:52;;;;;;;4.20;2.28;;;;;;;;;;5128819;27;20455;-71
2023/07/18 08:22:18;;;;;;;3.33;1.83;;;;;;;;;;5127480;27;20083;-74
2023/07/18 08:24:45;;;;;;;4.93;2.00;;;;;;;;;;5119526;27;20047;-72
2023/07/18 08:27:12;;;;;;;5.05;2.10;;;;;;;;;;5121474;27;20039;-72
2023/07/18 08:29:41;;;;;;;5.10;2.15;;;;;;;;;;5122233;27;20050;-76
2023/07/18 08:32:08;;;;;;;3.80;2.08;;;;;;;;;;5119981;27;20052;-71
2023/07/18 08:34:35;;;;;;;8.70;2.60;;;;;;;;;;5121943;27;20126;-72
2023/07/18 08:37:02;;;;;;;9.77;2.15;;;;;;;;;;5120348;27;20043;-75
2023/07/18 08:39:29;;;;;;;8.48;2.58;;;;;;;;;;5118625;27;20044;-72
2023/07/18 08:41:58;;;;;;;6.57;2.10;;;;;;;;;;5118887;27;20031;-71
2023/07/18 08:44:24;;;;;;;5.53;2.22;;;;;;;;;;5119782;27;20043;-72
2023/07/18 08:46:52;;;;;;;5.30;1.95;;;;;;;;;;5118793;27;20039;-76
2023/07/18 08:49:21;;;;;;;3.75;2.03;;;;;;;;;;5118273;27;20111;-72
2023/07/18 08:51:48;;;;;;;4.15;1.90;;;;;;;;;;5100264;27;20076;-75
2023/07/18 08:54:15;;;;;;;3.78;1.88;;;;;;;;;;5119911;27;20051;-72
2023/07/18 08:56:43;;;;;;;5.55;1.90;;;;;;;;;;5120630;27;20114;-71
2023/07/18 08:59:12;;;;;;;4.47;2.00;;;;;;;;;;5118791;27;20108;-71
2023/07/18 09:01:52;;;;;;;5.45;2.20;;;;;;;;;;5118044;27;20048;-72
2023/07/18 09:04:19;;;;;;;5.65;2.10;;;;;;;;;;5103192;27;20562;-71
2023/07/18 09:06:55;;;;;;;3.47;1.92;;;;;;;;;;5122014;27;20047;-71
2023/07/18 09:09:22;;;;;;;6.55;2.03;;;;;;;;;;5119576;27;20051;-73
2023/07/18 09:11:55;;;;;;;5.32;1.80;;;;;;;;;;5122472;27;20042;-72
2023/07/18 09:14:23;;;;;;;4.32;2.03;;;;;;;;;;5122404;27;20047;-71
2023/07/18 09:16:52;;;;;;;6.00;2.13;;;;;;;;;;5119250;27;20043;-72
2023/07/18 09:19:19;;;;;;;4.20;1.90;;;;;;;;;;5119456;27;20047;-71
2023/07/18 09:21:47;;;;;;;7.38;2.38;;;;;;;;;;5120644;27;20050;-74
2023/07/18 09:24:14;;;;;;;8.23;1.88;;;;;;;;;;5119873;27;20051;-71
2023/07/18 09:26:40;;;;;;;7.00;1.92;;;;;;;;;;5119210;27;20039;-72
2023/07/18 09:29:11;;;;;;;6.05;1.95;;;;;;;;;;5120918;27;20051;-72
2023/07/18 09:31:38;;;;;;;6.40;2.10;;;;;;;;;;5120365;27;20035;-71
2023/07/18 09:34:12;;;;;;;5.03;1.90;;;;;;;;;;5109347;27;20059;-74
2023/07/18 09:36:39;;;;;;;3.50;1.90;;;;;;;;;;5109518;28;20563;-72
2023/07/18 09:39:07;;;;;;;2.90;1.63;;;;;;;;;;5109720;28;20291;-73
2023/07/18 09:41:34;;;;;;;4.45;2.17;;;;;;;;;;5091688;28;20048;-73
2023/07/18 09:44:03;;;;;;;2.70;1.90;;;;;;;;;;5110049;28;20050;-75
2023/07/18 09:46:50;;;;;;;4.70;2.22;;;;;;;;;;5109571;28;20471;-72
2023/07/18 09:49:18;;;;;;;5.25;2.47;;;;;;;;;;5109925;28;20047;-73
2023/07/18 09:51:59;;;;;;;5.20;2.10;;;;;;;;;;5109703;28;20048;-72
2023/07/18 09:54:27;;;;;;;3.00;1.60;;;;;;;;;;5109569;28;20047;-72
2023/07/18 09:56:57;;;;;;;5.28;1.90;;;;;;;;;;5091291;28;20050;-72
2023/07/18 09:59:27;;;;;;;4.25;1.85;;;;;;;;;;5109619;28;20549;-75
2023/07/18 10:01:54;;;;;;;3.50;2.03;;;;;;;;;;5109883;28;20098;-76
2023/07/18 10:04:22;;;;;;;4.05;1.88;;;;;;;;;;5091816;28;20408;-76
2023/07/18 10:06:50;;;;;;;5.75;2.00;;;;;;;;;;5109333;28;20044;-71
2023/07/18 10:09:18;;;;;;;4.25;2.03;;;;;;;;;;5109232;28;20039;-72
2023/07/18 10:12:11;;;;;;;4.57;1.95;;;;;;;;;;5108970;28;20047;-71
2023/07/18 10:14:52;;;;;;;3.08;1.70;;;;;;;;;;5105141;28;20109;-72
2023/07/18 10:17:28;;;;;;;5.97;1.52;;;;;;;;;;5109181;28;20050;-72
2023/07/18 10:19:55;;;;;;;4.50;2.00;;;;;;;;;;5109726;28;20053;-71
2023/07/18 10:22:27;;;;;;;4.50;2.17;;;;;;;;;;5109033;28;20136;-73
2023/07/18 10:25:05;;;;;;;6.47;2.10;;;;;;;;;;5109430;28;20048;-71
2023/07/18 10:27:43;;;;;;;8.38;1.90;;;;;;;;;;5091245;28;20135;-72
2023/07/18 10:30:12;;;;;;;2.75;1.85;;;;;;;;;;5109051;28;20132;-71
2023/07/18 10:32:41;;;;;;;2.80;1.85;;;;;;;;;;5109490;28;20047;-71
2023/07/18 10:35:10;;;;;;;2.60;1.65;;;;;;;;;;5109289;28;20048;-73
2023/07/18 10:37:41;;;;;;;3.72;1.95;;;;;;;;;;5090386;28;20066;-73
2023/07/18 10:40:08;;;;;;;3.53;1.58;;;;;;;;;;5109446;28;20495;-72
2023/07/18 10:42:35;;;;;;;6.07;1.88;;;;;;;;;;5111306;28;20050;-72
2023/07/18 10:45:05;;;;;;;2.80;1.88;;;;;;;;;;5097670;28;20116;-72
2023/07/18 10:47:35;;;;;;;5.95;2.25;;;;;;;;;;5124613;28;20044;-73
2023/07/18 10:50:03;;;;;;;2.83;1.88;;;;;;;;;;5124809;28;20635;-71
2023/07/18 10:52:30;;;;;;;3.78;1.77;;;;;;;;;;5124209;28;20146;-78
2023/07/18 10:54:58;;;;;;;3.88;1.88;;;;;;;;;;5127809;27;20050;-72
2023/07/18 10:57:29;;;;;;;3.28;2.05;;;;;;;;;;5144746;27;20119;-71
2023/07/18 10:59:58;;;;;;;2.78;1.60;;;;;;;;;;5145075;27;20408;-71
2023/07/18 11:02:44;;;;;;;3.23;1.70;;;;;;;;;;5144986;27;20050;-72
2023/07/18 11:05:14;;;;;;;3.05;1.85;;;;;;;;;;5133527;27;20067;-74
2023/07/18 11:07:47;;;;;;;4.28;1.70;;;;;;;;;;5119166;27;20058;-72
2023/07/18 11:10:14;;;;;;;4.47;2.10;;;;;;;;;;5124677;27;20234;-73
2023/07/18 11:12:42;;;;;;;3.75;1.75;;;;;;;;;;5136177;27;20043;-72
2023/07/18 11:15:11;;;;;;;5.55;1.83;;;;;;;;;;5130440;27;20117;-72
2023/07/18 11:17:46;;;;;;;3.40;1.65;;;;;;;;;;5133898;27;20051;-74
2023/07/18 11:20:13;;;;;;;2.92;1.60;;;;;;;;;;5134787;27;20048;-72
2023/07/18 11:22:43;;;;;;;4.07;1.65;;;;;;;;;;5134963;27;20073;-75
2023/07/18 11:25:12;;;;;;;3.13;1.70;;;;;;;;;;5127781;27;20165;-72
2023/07/18 11:27:42;;;;;;;6.30;2.17;;;;;;;;;;5121487;27;20058;-72
2023/07/18 11:30:09;;;;;;;4.75;2.20;;;;;;;;;;5120103;27;20059;-73
2023/07/18 11:32:45;;;;;;;4.80;1.77;;;;;;;;;;5122142;27;20152;-71
2023/07/18 11:35:18;;;;;;;5.35;2.20;;;;;;;;;;5123675;27;20085;-71
2023/07/18 11:37:51;;;;;;;5.50;1.77;;;;;;;;;;5117526;27;20047;-73
2023/07/18 11:40:21;;;;;;;2.60;1.50;;;;;;;;;;5125596;27;20054;-72
2023/07/18 11:42:52;;;;;;;7.38;1.83;;;;;;;;;;5125278;27;20269;-73
2023/07/18 11:45:25;;;;;;;8.32;2.00;;;;;;;;;;5103695;27;20074;-71
2023/07/18 11:47:53;;;;;;;4.72;1.70;;;;;;;;;;5125854;27;20103;-70
2023/07/18 11:50:23;;;;;;;4.45;1.95;;;;;;;;;;5136889;27;20043;-71
2023/07/18 11:52:53;;;;;;;3.70;1.88;;;;;;;;;;5132729;27;20043;-74
2023/07/18 11:55:21;;;;;;;5.65;1.70;;;;;;;;;;5121766;27;20136;-71
2023/07/18 11:57:49;;;;;;;5.55;2.05;;;;;;;;;;5121860;27;20075;-71
2023/07/18 12:00:22;;;;;;;5.13;1.95;;;;;;;;;;5128185;27;20054;-71
2023/07/18 12:02:48;;;;;;;3.63;1.95;;;;;;;;;;5120908;27;20046;-74
2023/07/18 12:05:16;;;;;;;3.88;1.90;;;;;;;;;;5123050;27;20059;-78
2023/07/18 12:07:44;;;;;;;3.53;2.10;;;;;;;;;;5129930;27;20100;-72
2023/07/18 12:10:14;;;;;;;3.80;1.90;;;;;;;;;;5132450;27;20231;-72
2023/07/18 12:12:41;;;;;;;3.53;1.92;;;;;;;;;;5134006;27;20055;-72
2023/07/18 12:15:10;;;;;;;4.18;1.70;;;;;;;;;;5126398;27;20104;-72
2023/07/18 12:17:39;;;;;;;4.35;1.63;;;;;;;;;;5123829;27;20063;-71
2023/07/18 12:20:07;;;;;;;5.45;2.05;;;;;;;;;;5129355;27;20232;-72
2023/07/18 12:22:36;;;;;;;4.10;1.85;;;;;;;;;;5132479;27;20051;-73
2023/07/18 12:25:03;;;;;;;12.17;1.87;;;;;;;;;;5134686;27;20123;-71
2023/07/18 12:27:30;;;;;;;4.95;1.80;;;;;;;;;;5133731;27;20355;-73
2023/07/18 12:29:57;;;;;;;4.35;2.10;;;;;;;;;;5135490;27;20092;-74
2023/07/18 12:32:24;;;;;;;3.08;1.90;;;;;;;;;;5131278;27;20051;-73
2023/07/18 12:34:56;;;;;;;3.83;2.05;;;;;;;;;;5123386;27;20071;-73
2023/07/18 12:37:23;;;;;;;3.90;1.90;;;;;;;;;;5123935;27;20329;-73
2023/07/18 12:39:49;;;;;;;5.50;2.08;;;;;;;;;;5129250;27;20043;-72
2023/07/18 12:42:16;;;;;;;3.83;2.10;;;;;;;;;;5123033;27;20044;-72
2023/07/18 12:44:46;;;;;;;3.40;1.55;;;;;;;;;;5122384;27;20131;-75
2023/07/18 12:47:13;;;;;;;3.13;1.90;;;;;;;;;;5120210;27;20066;-76
2023/07/18 12:49:42;;;;;;;3.58;1.65;;;;;;;;;;5130589;27;20264;-73
2023/07/18 12:52:12;;;;;;;4.18;1.63;;;;;;;;;;5129871;27;20067;-72
2023/07/18 12:54:40;;;;;;;2.88;1.77;;;;;;;;;;5125986;27;20357;-72
2023/07/18 12:57:07;;;;;;;2.88;1.67;;;;;;;;;;5122936;27;20047;-73
2023/07/18 12:59:34;;;;;;;3.47;1.95;;;;;;;;;;5118119;27;20495;-72
2023/07/18 13:02:01;;;;;;;4.07;1.83;;;;;;;;;;5120678;27;20236;-72
2023/07/18 13:04:27;;;;;;;3.50;1.77;;;;;;;;;;5121988;27;20047;-72
2023/07/18 13:06:54;;;;;;;4.60;1.88;;;;;;;;;;5119057;27;20115;-74
2023/07/18 13:09:21;;;;;;;3.22;1.67;;;;;;;;;;5102195;27;20514;-73
2023/07/18 13:11:49;;;;;;;4.18;1.90;;;;;;;;;;5119513;27;20615;-73
2023/07/18 13:14:17;;;;;;;4.78;2.08;;;;;;;;;;5117799;27;20078;-73
2023/07/18 13:16:44;;;;;;;3.00;1.88;;;;;;;;;;5114665;27;20070;-77
2023/07/18 13:19:11;;;;;;;3.55;1.90;;;;;;;;;;5119319;27;20055;-73
2023/07/18 13:21:38;;;;;;;3.50;2.05;;;;;;;;;;5129274;27;20070;-71
2023/07/18 13:24:05;;;;;;;5.53;2.13;;;;;;;;;;5127166;27;20942;-71
2023/07/18 13:26:31;;;;;;;3.90;2.03;;;;;;;;;;5119523;27;20126;-73
2023/07/18 13:28:58;;;;;;;2.53;1.70;;;;;;;;;;5121647;27;20236;-71
2023/07/18 13:31:25;;;;;;;4.32;2.10;;;;;;;;;;5120396;27;20047;-76
2023/07/18 13:33:51;;;;;;;5.57;1.98;;;;;;;;;;5123093;27;20035;-70
2023/07/18 13:36:18;;;;;;;2.55;1.67;;;;;;;;;;5116493;27;20062;-71
2023/07/18 13:38:45;;;;;;;3.97;2.08;;;;;;;;;;5116784;27;20403;-72
2023/07/18 13:41:12;;;;;;;4.70;2.03;;;;;;;;;;5118628;27;20055;-72
2023/07/18 13:43:41;;;;;;;4.75;1.70;;;;;;;;;;5126000;27;20575;-77
2023/07/18 13:46:09;;;;;;;5.43;1.83;;;;;;;;;;5124583;27;20618;-72
2023/07/18 13:48:36;;;;;;;5.32;2.25;;;;;;;;;;5116065;27;20092;-71
2023/07/18 13:51:02;;;;;;;4.18;2.00;;;;;;;;;;5121367;27;20051;-73
2023/07/18 13:53:29;;;;;;;6.05;2.10;;;;;;;;;;5124862;27;20103;-74
2023/07/18 13:55:56;;;;;;;3.92;1.80;;;;;;;;;;5117461;27;20047;-77
2023/07/18 13:58:22;;;;;;;3.63;1.88;;;;;;;;;;5120098;27;20040;-71
2023/07/18 14:00:49;;;;;;;4.75;2.20;;;;;;;;;;5100397;27;20047;-73
2023/07/18 14:03:16;;;;;;;2.90;1.98;;;;;;;;;;5117417;27;20050;-74
2023/07/18 14:06:00;;;;;;;4.30;1.92;;;;;;;;;;5117199;27;20047;-71
2023/07/18 14:08:29;;;;;;;4.63;2.10;;;;;;;;;;5120838;27;20118;-70
2023/07/18 14:10:56;;;;;;;5.13;2.20;;;;;;;;;;5118098;27;20066;-71
2023/07/18 14:13:23;;;;;;;4.82;2.20;;;;;;;;;;5116402;27;20042;-71
2023/07/18 14:15:50;;;;;;;5.85;2.38;;;;;;;;;;5116636;27;20051;-71
2023/07/18 14:18:17;;;;;;;3.63;2.00;;;;;;;;;;5118667;27;20047;-72
2023/07/18 14:20:44;;;;;;;3.80;2.00;;;;;;;;;;5116754;27;20067;-71
2023/07/18 14:23:12;;;;;;;6.50;2.10;;;;;;;;;;5119992;27;20113;-70
2023/07/18 14:25:38;;;;;;;3.42;1.90;;;;;;;;;;5120534;27;20453;-72
2023/07/18 14:28:05;;;;;;;3.60;2.25;;;;;;;;;;5117613;27;20050;-72
2023/07/18 14:30:32;;;;;;;5.82;2.20;;;;;;;;;;5118221;27;20056;-71
2023/07/18 14:32:59;;;;;;;7.10;2.60;;;;;;;;;;5114610;27;20044;-72
2023/07/18 14:35:28;;;;;;;3.50;2.20;;;;;;;;;;5121593;27;20103;-74
2023/07/18 14:37:55;;;;;;;6.22;2.08;;;;;;;;;;5122630;28;20601;-70
2023/07/18 14:40:22;;;;;;;4.43;2.30;;;;;;;;;;5128042;28;20047;-72
2023/07/18 14:42:48;;;;;;;7.22;2.60;;;;;;;;;;5128923;27;20054;-72
2023/07/18 14:45:15;;;;;;;5.55;2.58;;;;;;;;;;5129636;28;20104;-71
2023/07/18 14:47:42;;;;;;;7.57;2.40;;;;;;;;;;5129377;28;20466;-74
2023/07/18 14:50:09;;;;;;;5.20;2.20;;;;;;;;;;5129625;28;20047;-76